Champion, Canada
Current Conditions -  °F | °C
As of 3:00 PM on Saturday 25 Oct 2014 (Local Time) from CYQL Reporting Station
Broken Clouds Broken Clouds  
Wind Chill: 54°   Ceiling: 27000
Heat Index: 54°   Visibility: 40mi
Dew Point: 34°   Wind: 10mph
Humidity: 47%   Direction: 120°ESE
Pressure: 29.73"   Gusts: NA
Location:  50.22°N, 113.15°W
Report Text: CYQL 252100Z 12009KT 40SM BKN270 12/01 A2973 RMK CI7 SLP081 DENSITY ALT 3600FT
Loading
Personal Weather Stations






























Interactive Weather Map
Tropical Storm Tracking
New forecast layout! Learn more

10-Day Weather Forecast

Advertisements
Track Severe Weather on mobile